Greenville, SC

4:24 AM EDT on August 21, 2014 (GMT -0400)
Greenville-Spartanburg International | Change Station
CLOSE
Current Station
Airport
Location: Greenville/Spartanburg,
Elevation: 971 ft
Nearby Weather Stations

Elev 971 ft 34.88 °N, 82.22 °W | Updated 31 minutes ago

Clear
Clear
70 °F
Feels Like 70 °F
N
0
Wind Variable Wind from North

Today
High -- | Low -- °F
--% Chance of Precip.
Yesterday
High -- | Low -- °F
Precip. -- in
6:54 AM 8:10 PM
Waning Crescent, 16% visible
Pressure 30.00 in
Visibility 10.0 miles
Clouds Clear
Dew Point 66 °F
Humidity 87%
Rainfall 0.00 in
Snow Depth Not available.
UV 0 out of 12
Pollen 8.40 out of 12
Air Quality Not available.
Flu Activity Not available.
METAR KGSP 210753Z AUTO 00000KT 10SM CLR 21/19 A3004 RMK AO2 SLP159 T02110189

More Conditions Fewer Conditions

Pressure 30.00 in
Visibility 10.0 miles
Clouds Clear
Dew Point 66 °F
Humidity 87%
Rainfall 0.00 in
Snow Depth Not available.
UV 0 out of 12
Pollen 8.40 out of 12
Air Quality Not available.
Flu Activity Not available.
METAR KGSP 210753Z AUTO 00000KT 10SM CLR 21/19 A3004 RMK AO2 SLP159 T02110189

More Conditions Fewer Conditions

10-Day Weather Forecast

Almanac

Astronomy

Aug. 21, 2014 Rise Set
Actual Time 6:54 AM EDT 8:10 PM EDT
Civil Twilight 6:27 AM EDT 8:36 PM EDT
Nautical Twilight 5:56 AM EDT 9:08 PM EDT
Astronomical Twilight 5:23 AM EDT 9:40 PM EDT
Moon 3:27 AM EDT 5:35 PM EDT
Length of Visible Light 14h 08m
Length of Day
13h 16m
Tomorrow will be 2m 0s shorter.
Waning Crescent, 16% of the Moon is Illuminated
Today
Waning Crescent
Aug 25
New
Sep 2
First Quarter
Sep 8
Full
Sep 15
Last Quarter

Today's Extremes

State Highs State Lows

Community

WunderPhotos

Upload Photos

1,745,867 photos uploaded!

Nearby

Air Quality

  Air Quality AQ Index Pollutant
Yesterday Good
PM2.5
Yesterday Good
OZONE
Thursday Good
OZONE

Snow Depth

Station Depth Elevation
No new snow has been reported.

Earthquake Activity

City Distance Mag. Time & Date
No recent earthquake activity has been reported nearby.
Minimum magnitude displayed is 2.5.

Coastal Water Temperatures

Place Temperature
No Stations Reporting

Nearby Weather Stations